Time;durP1;ratioP1;P1;durP2;ratioP2;P2;SDS_P1;SDS_P2;PMS_P1;PMS_P2;Temp;Humidity;BMP_temperature;BMP_pressure;BME280_temperature;BME280_humidity;BME280_pressure;Samples;Min_cycle;Max_cycle;Signal;HPM_P1;HPM_P2
2021/07/25 00:01:51;;;;;;;23.02;16.17;;;17.50;99.90;;;;;;4959292;28;20333;-79
2021/07/25 00:04:16;;;;;;;25.70;16.42;;;17.70;99.90;;;;;;4959401;28;20042;-78
2021/07/25 00:06:42;;;;;;;25.10;15.25;;;17.70;99.90;;;;;;4956825;28;20412;-78
2021/07/25 00:09:08;;;;;;;22.13;14.70;;;17.50;99.90;;;;;;4971054;28;20468;-78
2021/07/25 00:11:33;;;;;;;23.98;16.95;;;17.60;99.90;;;;;;4975803;28;20035;-79
2021/07/25 00:14:03;;;;;;;29.55;17.85;;;18.50;99.90;;;;;;4961454;28;20043;-78
2021/07/25 00:16:30;;;;;;;28.55;18.23;;;17.80;99.90;;;;;;4956533;29;20118;-78
2021/07/25 00:18:56;;;;;;;22.20;15.77;;;17.80;99.90;;;;;;4969181;28;20031;-79
2021/07/25 00:21:22;;;;;;;17.67;13.25;;;17.70;99.90;;;;;;4942348;28;20022;-79
2021/07/25 00:23:50;;;;;;;19.33;12.90;;;17.60;99.90;;;;;;4962244;28;20432;-78
2021/07/25 00:26:18;;;;;;;17.52;12.88;;;17.60;99.90;;;;;;4938625;29;20452;-78
2021/07/25 00:28:45;;;;;;;18.88;13.65;;;17.60;99.90;;;;;;4967395;28;20035;-78
2021/07/25 00:31:11;;;;;;;18.88;13.88;;;17.40;99.90;;;;;;4974601;28;20034;-78
2021/07/25 00:33:36;;;;;;;23.48;16.15;;;17.60;99.90;;;;;;4963621;28;20058;-78
2021/07/25 00:36:06;;;;;;;22.33;15.18;;;17.50;99.90;;;;;;4938021;29;20028;-78
2021/07/25 00:38:32;;;;;;;25.63;16.08;;;17.50;99.90;;;;;;4965275;28;20023;-78
2021/07/25 00:41:19;;;;;;;25.02;16.23;;;17.80;99.90;;;;;;4973574;28;20023;-78
2021/07/25 00:43:46;;;;;;;22.83;16.65;;;17.60;99.90;;;;;;4962276;28;20033;-77
2021/07/25 00:46:13;;;;;;;18.90;15.80;;;18.00;99.90;;;;;;4956394;29;20031;-77
2021/07/25 00:48:39;;;;;;;24.48;15.38;;;18.80;99.90;;;;;;4949249;28;20050;-78
2021/07/25 00:51:05;;;;;;;19.80;14.40;;;17.80;99.90;;;;;;4973599;28;20053;-78
2021/07/25 00:53:37;;;;;;;19.90;14.70;;;17.80;99.90;;;;;;4945367;28;20732;-78
2021/07/25 00:56:04;;;;;;;23.25;15.25;;;17.80;99.90;;;;;;4954595;29;20028;-78
2021/07/25 00:58:31;;;;;;;21.15;13.77;;;17.80;99.90;;;;;;4954672;28;20051;-78
2021/07/25 01:00:57;;;;;;;18.50;13.55;;;17.90;99.90;;;;;;4954412;29;20042;-78
2021/07/25 01:04:08;;;;;;;21.27;13.45;;;18.80;99.90;;;;;;4963773;28;20023;-78
2021/07/25 01:06:41;;;;;;;23.67;13.60;;;17.80;99.90;;;;;;4974636;28;20031;-78
2021/07/25 01:09:19;;;;;;;16.73;13.00;;;18.10;99.90;;;;;;4974081;28;20022;-78
2021/07/25 01:11:55;;;;;;;19.75;14.10;;;18.10;99.90;;;;;;4957640;28;20102;-78
2021/07/25 01:14:26;;;;;;;17.83;13.70;;;18.30;99.90;;;;;;4938455;29;20170;-79
2021/07/25 01:16:52;;;;;;;21.45;13.35;;;18.00;99.90;;;;;;4941126;28;20110;-78
2021/07/25 01:19:18;;;;;;;18.83;13.40;;;17.80;99.90;;;;;;4937630;29;20066;-78
2021/07/25 01:21:43;;;;;;;18.27;13.52;;;18.00;99.90;;;;;;4938326;29;20111;-78
2021/07/25 01:24:09;;;;;;;19.00;13.95;;;18.10;99.90;;;;;;4955809;28;20062;-78
2021/07/25 01:26:39;;;;;;;19.45;14.55;;;18.20;99.90;;;;;;4974159;28;20565;-78
2021/07/25 01:29:06;;;;;;;19.52;13.73;;;18.10;99.90;;;;;;4974223;28;20031;-78
2021/07/25 01:31:40;;;;;;;19.83;14.10;;;17.90;99.90;;;;;;4957721;28;20084;-78
2021/07/25 01:34:08;;;;;;;16.90;13.18;;;18.10;99.90;;;;;;4941318;28;20039;-78
2021/07/25 01:36:36;;;;;;;20.38;14.15;;;17.90;99.90;;;;;;4953434;28;20031;-78
2021/07/25 01:39:02;;;;;;;20.88;13.25;;;18.10;99.90;;;;;;4954845;29;20027;-78
2021/07/25 01:41:27;;;;;;;18.58;13.75;;;18.00;99.90;;;;;;4937899;29;20046;-78
2021/07/25 01:43:53;;;;;;;16.23;13.13;;;18.40;99.90;;;;;;4937974;29;20027;-78
2021/07/25 01:46:19;;;;;;;17.27;13.10;;;18.00;99.90;;;;;;4954933;29;20571;-77
2021/07/25 01:48:45;;;;;;;18.63;12.60;;;18.20;99.90;;;;;;4961073;28;20085;-78
2021/07/25 01:51:12;;;;;;;18.17;12.27;;;18.10;99.90;;;;;;4973849;28;20031;-78
2021/07/25 01:53:38;;;;;;;17.15;11.88;;;18.30;99.90;;;;;;4957824;28;20031;-78
2021/07/25 01:56:03;;;;;;;18.80;13.00;;;18.30;99.90;;;;;;4977896;28;20035;-78
2021/07/25 01:58:29;;;;;;;19.08;12.55;;;18.10;99.90;;;;;;4977497;28;20047;-78
2021/07/25 02:00:55;;;;;;;15.48;12.27;;;18.20;99.90;;;;;;4970271;28;20516;-77
2021/07/25 02:03:25;;;;;;;14.73;11.98;;;18.20;99.90;;;;;;4958117;29;20031;-78
2021/07/25 02:05:52;;;;;;;14.02;12.20;;;18.20;99.90;;;;;;4958913;29;20424;-78
2021/07/25 02:08:18;;;;;;;15.30;11.60;;;18.20;99.90;;;;;;4957268;29;20027;-78
2021/07/25 02:10:51;;;;;;;15.13;10.25;;;18.40;99.90;;;;;;4940566;29;20031;-77
2021/07/25 02:13:19;;;;;;;14.32;10.85;;;18.20;99.90;;;;;;4967865;28;20066;-77
2021/07/25 02:15:45;;;;;;;13.07;10.45;;;18.30;99.90;;;;;;4944757;29;20109;-78
2021/07/25 02:18:11;;;;;;;14.52;10.30;;;18.20;99.90;;;;;;4957879;29;20031;-78
2021/07/25 02:20:37;;;;;;;10.60;9.07;;;19.00;99.90;;;;;;4956771;29;20055;-78
2021/07/25 02:23:03;;;;;;;12.77;9.48;;;18.40;99.90;;;;;;4957878;29;20050;-78
2021/07/25 02:25:29;;;;;;;16.85;9.32;;;18.30;99.90;;;;;;4969914;28;20515;-77
2021/07/25 02:27:55;;;;;;;11.45;9.60;;;18.20;99.90;;;;;;4976695;28;20039;-77
2021/07/25 02:30:20;;;;;;;13.40;9.60;;;18.40;99.90;;;;;;4958650;28;20026;-77
2021/07/25 02:32:46;;;;;;;15.07;9.45;;;18.20;99.90;;;;;;4976651;28;20081;-78
2021/07/25 02:35:12;;;;;;;12.45;10.65;;;18.40;99.90;;;;;;4972790;28;20027;-78
2021/07/25 02:37:37;;;;;;;18.58;10.63;;;18.10;99.90;;;;;;4953807;28;20070;-78
2021/07/25 02:40:04;;;;;;;12.68;10.10;;;18.40;99.90;;;;;;4939265;29;20113;-77
2021/07/25 02:42:29;;;;;;;13.63;9.70;;;18.20;99.90;;;;;;4957527;29;20059;-78
2021/07/25 02:44:55;;;;;;;17.48;10.00;;;18.70;99.90;;;;;;4957306;29;20515;-78
2021/07/25 02:47:21;;;;;;;18.40;10.57;;;18.20;99.90;;;;;;4958453;28;20081;-77
2021/07/25 02:49:46;;;;;;;13.70;10.25;;;18.40;99.90;;;;;;4974010;28;20030;-77
2021/07/25 02:52:12;;;;;;;16.33;10.05;;;18.30;99.90;;;;;;4975281;28;20369;-77
2021/07/25 02:54:38;;;;;;;14.88;9.70;;;18.40;99.90;;;;;;4958005;28;20377;-77
2021/07/25 02:57:03;;;;;;;17.70;10.35;;;18.20;99.90;;;;;;4975269;28;20579;-77
2021/07/25 02:59:30;;;;;;;12.80;9.90;;;18.10;99.90;;;;;;4971266;28;20118;-77
2021/07/25 03:01:56;;;;;;;15.45;10.52;;;19.10;99.90;;;;;;4955902;29;20110;-77
2021/07/25 03:04:22;;;;;;;16.67;10.30;;;18.40;99.90;;;;;;4954044;28;20027;-77
2021/07/25 03:06:48;;;;;;;13.00;10.68;;;18.50;99.90;;;;;;4955486;29;20031;-77
2021/07/25 03:09:14;;;;;;;13.23;10.00;;;18.60;99.90;;;;;;4955067;29;20357;-78
2021/07/25 03:11:40;;;;;;;14.65;10.65;;;18.90;99.90;;;;;;4961178;28;20039;-77
2021/07/25 03:14:06;;;;;;;15.90;10.73;;;18.30;99.90;;;;;;4955407;28;20026;-77
2021/07/25 03:16:33;;;;;;;12.23;10.70;;;18.30;99.90;;;;;;4955521;29;20027;-77
2021/07/25 03:18:59;;;;;;;13.73;10.63;;;18.50;99.90;;;;;;4954864;29;20047;-77
2021/07/25 03:21:25;;;;;;;15.82;10.57;;;18.40;99.90;;;;;;4955127;29;20039;-77
2021/07/25 03:23:51;;;;;;;13.70;10.93;;;18.60;99.90;;;;;;4960121;28;20033;-77
2021/07/25 03:26:17;;;;;;;14.77;10.88;;;18.30;99.90;;;;;;4974820;28;20061;-77
2021/07/25 03:28:43;;;;;;;14.73;10.55;;;18.70;99.90;;;;;;4974357;28;20077;-76
2021/07/25 03:31:08;;;;;;;18.38;10.50;;;18.70;99.90;;;;;;4974312;28;20054;-77
2021/07/25 03:33:34;;;;;;;11.60;9.57;;;18.50;99.90;;;;;;4974552;28;20038;-77
2021/07/25 03:36:00;;;;;;;14.02;10.02;;;18.50;99.90;;;;;;4970124;28;20109;-77
2021/07/25 03:38:26;;;;;;;12.38;10.07;;;18.60;99.90;;;;;;4956040;28;20514;-77
2021/07/25 03:40:53;;;;;;;13.25;10.20;;;18.60;99.90;;;;;;4973990;28;20419;-77
2021/07/25 03:43:18;;;;;;;12.25;9.95;;;18.60;99.90;;;;;;4974431;28;20092;-77
2021/07/25 03:45:46;;;;;;;13.65;10.77;;;18.80;99.90;;;;;;4941969;29;20039;-77
2021/07/25 03:48:13;;;;;;;17.38;11.57;;;18.60;99.90;;;;;;4955889;28;20046;-77
2021/07/25 03:50:40;;;;;;;14.95;10.45;;;18.60;99.90;;;;;;4953057;29;20384;-77
2021/07/25 03:53:07;;;;;;;18.95;11.10;;;18.80;99.90;;;;;;4954953;29;20132;-77
2021/07/25 03:55:34;;;;;;;16.67;11.10;;;19.40;99.90;;;;;;4954949;29;20035;-77
2021/07/25 03:58:01;;;;;;;15.93;11.45;;;18.60;99.90;;;;;;4944703;29;20185;-77
2021/07/25 04:00:26;;;;;;;15.65;10.95;;;18.60;99.90;;;;;;4936924;29;20154;-77
2021/07/25 04:02:52;;;;;;;13.32;11.23;;;18.60;99.90;;;;;;4954662;29;20102;-76
2021/07/25 04:05:18;;;;;;;13.60;11.50;;;18.60;99.90;;;;;;4937274;29;20520;-78
2021/07/25 04:07:43;;;;;;;15.35;11.57;;;18.60;99.90;;;;;;4954492;29;20027;-77
2021/07/25 04:10:10;;;;;;;15.70;11.80;;;18.50;99.90;;;;;;4967053;28;20039;-77
2021/07/25 04:12:35;;;;;;;14.65;11.85;;;18.60;99.90;;;;;;4973827;28;20558;-77
2021/07/25 04:15:04;;;;;;;13.55;11.38;;;18.60;99.90;;;;;;4947043;29;20043;-77
2021/07/25 04:17:33;;;;;;;16.58;11.30;;;18.60;99.90;;;;;;4953622;28;20042;-77
2021/07/25 04:19:59;;;;;;;16.13;10.52;;;18.80;99.90;;;;;;4953408;29;20488;-77
2021/07/25 04:22:25;;;;;;;13.40;10.50;;;18.70;99.90;;;;;;4953621;28;20035;-77
2021/07/25 04:24:50;;;;;;;13.10;10.52;;;18.70;99.90;;;;;;4973641;28;20077;-77
2021/07/25 04:27:16;;;;;;;15.18;10.60;;;18.80;99.90;;;;;;4956336;28;20440;-77
2021/07/25 04:29:42;;;;;;;15.32;10.65;;;18.60;99.90;;;;;;4955338;28;20094;-78
2021/07/25 04:32:08;;;;;;;14.13;10.40;;;18.70;99.90;;;;;;4973475;28;20535;-76
2021/07/25 04:34:34;;;;;;;14.75;10.35;;;18.70;99.90;;;;;;4956575;28;20039;-78
2021/07/25 04:37:01;;;;;;;16.52;11.48;;;18.70;99.90;;;;;;4936892;29;20518;-77
2021/07/25 04:39:27;;;;;;;17.75;11.18;;;18.70;99.90;;;;;;4953274;28;20023;-72
2021/07/25 04:41:56;;;;;;;14.25;10.10;;;18.80;99.90;;;;;;4953994;28;20042;-72
2021/07/25 04:44:27;;;;;;;15.13;10.88;;;18.70;99.90;;;;;;4954088;29;20054;-73
2021/07/25 04:46:55;;;;;;;19.77;11.30;;;18.70;99.90;;;;;;4954169;28;20119;-73
2021/07/25 04:49:26;;;;;;;13.70;10.13;;;18.80;99.90;;;;;;4952970;29;20110;-74
2021/07/25 04:51:52;;;;;;;13.50;10.10;;;18.80;99.90;;;;;;4953771;29;20427;-72
2021/07/25 04:54:18;;;;;;;14.82;9.95;;;18.90;99.90;;;;;;4953778;29;20058;-72
2021/07/25 04:56:44;;;;;;;13.02;9.48;;;18.90;99.90;;;;;;4936639;29;20485;-72
2021/07/25 04:59:18;;;;;;;15.93;9.63;;;19.20;99.90;;;;;;4971357;28;20034;-73
2021/07/25 05:01:46;;;;;;;17.73;9.93;;;19.20;99.90;;;;;;4973096;28;20427;-73
2021/07/25 05:04:13;;;;;;;14.52;10.73;;;19.00;99.90;;;;;;4973125;28;20403;-73
2021/07/25 05:06:39;;;;;;;13.85;9.57;;;19.20;99.90;;;;;;4972805;28;20039;-73
2021/07/25 05:09:05;;;;;;;15.38;9.80;;;19.00;99.90;;;;;;4972305;28;20404;-72
2021/07/25 05:11:59;;;;;;;15.52;8.90;;;19.10;99.90;;;;;;4954212;28;20106;-72
2021/07/25 05:14:35;;;;;;;16.25;9.73;;;19.10;99.90;;;;;;4953685;28;20039;-73
2021/07/25 05:17:03;;;;;;;11.85;8.55;;;19.10;99.90;;;;;;4953679;29;20418;-73
2021/07/25 05:19:53;;;;;;;13.27;10.05;;;19.30;99.90;;;;;;4952912;29;20484;-72
2021/07/25 05:22:31;;;;;;;14.75;9.43;;;19.30;99.90;;;;;;4961111;28;20030;-72
2021/07/25 05:25:00;;;;;;;13.40;8.85;;;19.20;99.90;;;;;;4972815;28;20023;-72
2021/07/25 05:27:31;;;;;;;13.60;9.35;;;19.20;99.90;;;;;;4972604;28;20027;-72
2021/07/25 05:29:57;;;;;;;13.52;9.38;;;19.40;99.90;;;;;;4959576;28;20046;-73
2021/07/25 05:32:23;;;;;;;15.07;9.63;;;19.10;99.90;;;;;;4953373;29;20031;-73
2021/07/25 05:34:48;;;;;;;12.02;9.15;;;19.20;99.90;;;;;;4967734;28;20034;-73
2021/07/25 05:37:14;;;;;;;11.10;9.07;;;19.40;99.90;;;;;;4972430;28;20035;-73
2021/07/25 05:39:40;;;;;;;14.65;9.45;;;19.20;99.90;;;;;;4972280;28;20051;-73
2021/07/25 05:42:05;;;;;;;11.57;9.00;;;19.20;99.90;;;;;;4972767;28;20039;-73
2021/07/25 05:44:31;;;;;;;11.98;8.80;;;19.30;99.90;;;;;;4967105;28;20034;-73
2021/07/25 05:47:00;;;;;;;12.27;9.05;;;19.50;99.90;;;;;;4965495;28;20035;-73
2021/07/25 05:49:27;;;;;;;13.23;8.88;;;19.70;99.90;;;;;;4971813;28;20052;-73
2021/07/25 05:51:52;;;;;;;12.40;9.13;;;19.40;99.90;;;;;;4972112;28;20031;-73
2021/07/25 05:54:18;;;;;;;12.65;8.32;;;19.40;99.90;;;;;;4962164;28;20045;-74
2021/07/25 05:56:43;;;;;;;12.52;9.00;;;20.30;99.90;;;;;;4950279;28;20042;-73
2021/07/25 05:59:10;;;;;;;10.48;8.02;;;19.70;99.90;;;;;;4964194;28;20042;-72
2021/07/25 06:01:43;;;;;;;12.07;8.52;;;19.80;99.90;;;;;;4972372;28;20507;-73
2021/07/25 06:04:09;;;;;;;11.73;9.00;;;19.80;99.90;;;;;;4972316;28;20109;-74
2021/07/25 06:06:34;;;;;;;11.32;8.23;;;19.90;99.90;;;;;;4972137;28;20110;-73
2021/07/25 06:09:03;;;;;;;11.45;8.07;;;19.90;99.90;;;;;;4971304;28;20089;-73
2021/07/25 06:11:29;;;;;;;10.38;7.53;;;19.90;99.90;;;;;;4957470;28;20031;-73
2021/07/25 06:13:54;;;;;;;9.00;7.38;;;20.00;99.90;;;;;;4935505;29;20086;-72
2021/07/25 06:16:20;;;;;;;10.45;7.40;;;20.00;99.90;;;;;;4952252;29;20488;-73
2021/07/25 06:18:48;;;;;;;12.57;7.65;;;20.00;99.90;;;;;;4951306;29;20039;-73
2021/07/25 06:21:20;;;;;;;14.38;7.57;;;19.80;99.90;;;;;;4940807;28;20098;-72
2021/07/25 06:23:50;;;;;;;10.05;7.07;;;19.70;99.90;;;;;;4963783;28;20030;-73
2021/07/25 06:26:16;;;;;;;12.77;7.88;;;19.70;99.90;;;;;;4972495;28;20073;-73
2021/07/25 06:28:44;;;;;;;12.65;7.30;;;19.70;99.90;;;;;;4971689;28;20046;-73
2021/07/25 06:31:11;;;;;;;10.63;7.50;;;19.70;99.90;;;;;;4972021;28;20035;-73
2021/07/25 06:33:36;;;;;;;9.98;7.60;;;19.80;99.90;;;;;;4938772;28;20399;-73
2021/07/25 06:36:04;;;;;;;12.15;8.48;;;19.70;99.90;;;;;;4966895;28;20110;-73
2021/07/25 06:38:30;;;;;;;10.95;7.57;;;19.70;99.90;;;;;;4954128;28;20034;-73
2021/07/25 06:40:56;;;;;;;10.95;8.07;;;19.80;99.90;;;;;;4974056;28;20034;-74
2021/07/25 06:43:23;;;;;;;12.93;7.80;;;19.90;99.90;;;;;;4974788;28;20051;-73
2021/07/25 06:45:49;;;;;;;9.60;6.65;;;19.90;99.90;;;;;;4958753;28;20074;-73
2021/07/25 06:48:26;;;;;;;9.95;6.65;;;20.10;99.90;;;;;;4973034;28;20035;-73
2021/07/25 06:50:54;;;;;;;9.35;6.72;;;20.10;99.90;;;;;;4974631;28;20031;-73
2021/07/25 06:53:21;;;;;;;9.18;7.13;;;20.20;99.90;;;;;;4975456;28;20034;-74
2021/07/25 06:55:52;;;;;;;11.07;7.07;;;20.30;99.90;;;;;;4974994;28;20031;-73
2021/07/25 06:58:18;;;;;;;8.65;6.22;;;20.20;99.90;;;;;;4972040;28;20030;-73
2021/07/25 07:00:43;;;;;;;8.30;6.53;;;20.30;99.90;;;;;;4955227;29;20028;-73
2021/07/25 07:03:09;;;;;;;7.63;6.07;;;20.50;99.90;;;;;;4954992;29;20110;-73
2021/07/25 07:05:35;;;;;;;8.88;5.72;;;20.60;99.90;;;;;;4950829;28;20066;-73
2021/07/25 07:08:05;;;;;;;8.55;5.38;;;21.10;99.90;;;;;;4955695;28;20082;-74
2021/07/25 07:10:35;;;;;;;5.38;4.57;;;21.30;99.90;;;;;;4953888;28;20036;-73
2021/07/25 07:13:03;;;;;;;22.75;6.18;;;21.30;99.90;;;;;;4955247;29;20416;-73
2021/07/25 07:15:30;;;;;;;10.07;4.70;;;21.40;99.90;;;;;;4955343;29;20027;-74
2021/07/25 07:17:58;;;;;;;6.80;4.63;;;21.60;99.90;;;;;;4955815;28;20035;-75
2021/07/25 07:20:24;;;;;;;8.57;4.57;;;21.90;99.90;;;;;;4954201;29;20381;-76
2021/07/25 07:22:55;;;;;;;7.47;4.13;;;21.90;99.90;;;;;;4955271;29;20214;-76
2021/07/25 07:25:23;;;;;;;5.72;3.70;;;21.90;99.90;;;;;;4956112;29;20038;-74
2021/07/25 07:27:49;;;;;;;8.90;4.45;;;21.90;99.90;;;;;;4955083;29;20385;-74
2021/07/25 07:30:15;;;;;;;7.05;4.50;;;21.80;99.90;;;;;;4959668;28;20037;-75
2021/07/25 07:32:41;;;;;;;5.70;3.65;;;21.90;99.90;;;;;;4964087;28;20428;-75
2021/07/25 07:35:07;;;;;;;6.10;3.63;;;22.10;99.90;;;;;;4937712;29;20026;-75
2021/07/25 07:37:32;;;;;;;5.20;3.40;;;22.30;99.90;;;;;;4962265;28;20071;-75
2021/07/25 07:39:58;;;;;;;5.32;3.47;;;22.50;99.90;;;;;;4973084;28;20113;-75
2021/07/25 07:42:24;;;;;;;6.22;4.07;;;22.60;99.90;;;;;;4968459;28;20039;-75
2021/07/25 07:44:50;;;;;;;6.88;3.78;;;22.80;99.90;;;;;;4954389;29;20451;-73
2021/07/25 07:47:16;;;;;;;5.63;3.25;;;23.00;99.90;;;;;;4954540;28;20023;-73
2021/07/25 07:49:41;;;;;;;7.20;3.47;;;23.00;99.90;;;;;;4954074;29;20051;-75
2021/07/25 07:52:07;;;;;;;6.00;3.72;;;23.30;99.90;;;;;;4953412;28;20042;-75
2021/07/25 07:54:34;;;;;;;5.35;3.22;;;23.30;99.90;;;;;;4960140;28;20095;-75
2021/07/25 07:57:01;;;;;;;9.50;3.13;;;23.40;99.90;;;;;;4975468;28;20109;-76
2021/07/25 07:59:27;;;;;;;4.85;3.05;;;23.50;99.90;;;;;;4973619;28;20082;-75
2021/07/25 08:01:52;;;;;;;8.40;3.20;;;23.40;99.90;;;;;;4973990;28;20031;-74
2021/07/25 08:04:18;;;;;;;6.18;3.53;;;23.30;99.90;;;;;;4956877;28;20067;-75
2021/07/25 08:06:45;;;;;;;4.88;3.50;;;22.90;99.90;;;;;;4968242;28;20023;-75
2021/07/25 08:09:12;;;;;;;9.52;3.00;;;22.70;99.90;;;;;;4953859;29;20042;-75
2021/07/25 08:11:43;;;;;;;8.25;3.97;;;22.60;99.90;;;;;;4954105;29;20488;-75
2021/07/25 08:14:19;;;;;;;6.55;3.05;;;23.10;99.90;;;;;;4954689;29;20035;-73
2021/07/25 08:16:46;;;;;;;5.90;3.30;;;22.70;99.90;;;;;;4955063;29;20031;-72
2021/07/25 08:19:13;;;;;;;7.68;3.30;;;22.70;99.90;;;;;;4962523;28;20479;-74
2021/07/25 08:21:40;;;;;;;3.40;2.75;;;22.90;99.90;;;;;;4972979;28;20081;-74
2021/07/25 08:24:06;;;;;;;4.95;2.53;;;23.10;99.90;;;;;;4973424;28;20030;-74
2021/07/25 08:26:32;;;;;;;5.35;2.88;;;23.30;99.90;;;;;;4966450;28;20027;-74
2021/07/25 08:28:58;;;;;;;4.55;2.95;;;23.50;99.90;;;;;;4953082;29;20041;-74
2021/07/25 08:31:23;;;;;;;6.22;2.80;;;23.50;99.90;;;;;;4953675;28;20086;-74
2021/07/25 08:33:49;;;;;;;7.20;2.80;;;23.50;99.90;;;;;;4953580;28;20104;-75
2021/07/25 08:36:15;;;;;;;6.38;3.88;;;23.80;99.90;;;;;;4956099;28;20034;-74
2021/07/25 08:38:40;;;;;;;3.30;2.38;;;22.20;99.90;;;;;;4972699;28;20027;-74
2021/07/25 08:41:17;;;;;;;4.50;2.67;;;23.90;99.90;;;;;;4972624;28;20061;-74
2021/07/25 08:43:45;;;;;;;5.90;2.70;;;24.10;99.90;;;;;;4959904;28;20038;-74
2021/07/25 08:46:19;;;;;;;3.45;2.33;;;24.20;99.90;;;;;;4936917;29;20032;-75
2021/07/25 08:48:50;;;;;;;5.53;2.95;;;24.20;99.90;;;;;;4953395;29;20110;-72
2021/07/25 08:51:28;;;;;;;4.60;2.85;;;24.60;99.90;;;;;;4953124;29;20027;-72
2021/07/25 08:54:01;;;;;;;6.30;2.65;;;24.70;99.90;;;;;;4953637;29;20480;-72
2021/07/25 08:56:33;;;;;;;3.72;2.75;;;24.50;99.90;;;;;;4970376;28;20492;-72
2021/07/25 08:59:05;;;;;;;4.40;2.80;;;24.50;99.90;;;;;;4971983;28;20065;-72
2021/07/25 09:01:38;;;;;;;3.28;2.60;;;24.40;99.90;;;;;;4972657;28;20026;-73
2021/07/25 09:04:04;;;;;;;7.15;2.53;;;24.70;99.90;;;;;;4970451;28;20089;-72
2021/07/25 09:06:40;;;;;;;5.10;2.72;;;24.90;99.90;;;;;;4968658;28;20047;-72
2021/07/25 09:09:05;;;;;;;3.55;2.60;;;25.30;99.90;;;;;;4953426;29;20492;-72
2021/07/25 09:11:31;;;;;;;3.97;2.65;;;25.10;99.90;;;;;;4951991;29;20077;-72
2021/07/25 09:13:58;;;;;;;6.57;3.20;;;25.30;99.90;;;;;;4953078;29;20496;-73
2021/07/25 09:16:30;;;;;;;6.28;2.75;;;25.60;99.90;;;;;;4960708;28;20023;-72
2021/07/25 09:18:57;;;;;;;6.20;2.35;;;25.90;99.90;;;;;;4949633;29;20118;-72
2021/07/25 09:21:41;;;;;;;4.30;2.53;;;26.20;99.90;;;;;;4953876;29;20028;-73
2021/07/25 09:24:25;;;;;;;4.18;2.75;;;26.20;99.90;;;;;;4953611;29;20046;-73
2021/07/25 09:26:52;;;;;;;4.88;2.72;;;25.80;99.90;;;;;;4953035;29;20028;-72
2021/07/25 09:29:21;;;;;;;4.28;2.67;;;25.40;99.90;;;;;;4952499;29;20070;-73
2021/07/25 09:31:47;;;;;;;4.53;2.67;;;25.20;99.90;;;;;;4967893;28;20089;-73
2021/07/25 09:34:36;;;;;;;3.17;2.05;;;25.20;99.90;;;;;;4970455;28;20043;-72
2021/07/25 09:37:16;;;;;;;3.47;2.40;;;25.60;99.90;;;;;;4970284;28;20030;-74
2021/07/25 09:39:54;;;;;;;7.05;2.53;;;25.70;99.90;;;;;;4952327;29;20023;-73
2021/07/25 09:42:40;;;;;;;5.78;2.65;;;26.00;99.90;;;;;;4952901;28;20054;-72
2021/07/25 09:45:06;;;;;;;4.10;2.42;;;25.90;99.90;;;;;;4953030;29;20027;-73
2021/07/25 09:47:38;;;;;;;7.63;2.40;;;25.70;99.90;;;;;;4948837;28;20019;-73
2021/07/25 09:50:06;;;;;;;3.50;2.42;;;25.70;99.90;;;;;;4950867;28;20019;-73
2021/07/25 09:52:37;;;;;;;4.38;2.60;;;26.00;99.90;;;;;;4953858;28;20090;-73
2021/07/25 09:55:05;;;;;;;6.68;2.60;;;26.30;99.90;;;;;;4952802;28;20114;-73
2021/07/25 09:57:32;;;;;;;6.93;2.92;;;26.60;99.90;;;;;;4951309;29;20027;-73
2021/07/25 10:00:08;;;;;;;6.28;3.10;;;26.80;99.90;;;;;;4952070;29;20098;-74
2021/07/25 10:02:34;;;;;;;4.47;2.50;;;26.80;99.90;;;;;;4952807;29;20071;-73
2021/07/25 10:05:11;;;;;;;6.70;2.88;;;27.00;99.90;;;;;;4952630;28;20035;-74
2021/07/25 10:07:37;;;;;;;4.90;2.80;;;27.40;99.90;;;;;;4965933;28;20039;-76
2021/07/25 10:10:05;;;;;;;5.10;2.58;;;27.40;99.90;;;;;;4955458;28;20126;-76
2021/07/25 10:12:35;;;;;;;3.78;2.53;;;27.40;99.90;;;;;;4971024;28;20030;-75
2021/07/25 10:15:04;;;;;;;4.68;2.42;;;28.10;99.90;;;;;;4946388;28;20027;-73
2021/07/25 10:17:36;;;;;;;4.53;2.60;;;28.90;99.90;;;;;;4938756;29;20035;-73
2021/07/25 10:20:04;;;;;;;6.78;2.67;;;28.90;99.90;;;;;;4974549;28;20023;-72
2021/07/25 10:22:31;;;;;;;4.53;2.35;;;28.90;99.90;;;;;;4973934;28;20105;-72
2021/07/25 10:24:59;;;;;;;4.25;3.10;;;29.10;99.30;;;;;;4975420;28;20029;-73
2021/07/25 10:27:25;;;;;;;6.15;3.33;;;28.60;99.90;;;;;;4975523;28;20404;-73
2021/07/25 10:29:53;;;;;;;4.82;2.72;;;28.10;99.90;;;;;;4972068;28;20528;-74
2021/07/25 10:32:20;;;;;;;4.15;2.70;;;27.70;99.90;;;;;;4956058;29;20516;-74
2021/07/25 10:34:49;;;;;;;5.63;2.80;;;28.00;99.90;;;;;;4955668;29;20062;-75
2021/07/25 10:37:15;;;;;;;5.47;3.53;;;28.00;99.90;;;;;;4955554;29;20123;-74
2021/07/25 10:39:48;;;;;;;5.25;2.85;;;27.80;99.90;;;;;;4954728;29;20063;-74
2021/07/25 10:42:21;;;;;;;6.07;3.80;;;27.40;99.90;;;;;;4954776;28;20047;-75
2021/07/25 10:44:47;;;;;;;5.38;2.67;;;27.70;99.90;;;;;;4955780;29;20384;-74
2021/07/25 10:47:38;;;;;;;4.38;2.95;;;27.80;99.90;;;;;;4955624;29;20134;-75
2021/07/25 10:50:15;;;;;;;6.80;3.63;;;28.00;99.90;;;;;;4935539;29;20066;-75
2021/07/25 10:53:02;;;;;;;7.47;3.30;;;28.00;99.90;;;;;;4955226;29;20043;-75
2021/07/25 10:55:43;;;;;;;3.60;2.70;;;28.00;99.90;;;;;;4949985;28;20487;-75
2021/07/25 10:58:20;;;;;;;4.00;2.55;;;28.50;99.90;;;;;;4974784;28;20392;-73
2021/07/25 11:00:53;;;;;;;4.45;2.78;;;29.30;98.90;;;;;;4956741;28;20030;-74
2021/07/25 11:03:24;;;;;;;4.53;2.78;;;29.70;97.70;;;;;;4957041;28;20027;-73
2021/07/25 11:05:59;;;;;;;4.30;2.10;;;29.80;96.90;;;;;;4957107;28;20022;-74
2021/07/25 11:08:43;;;;;;;7.10;2.97;;;29.60;97.10;;;;;;4936072;29;20106;-73
2021/07/25 11:11:39;;;;;;;4.75;3.08;;;29.30;96.70;;;;;;4935536;29;20046;-74
2021/07/25 11:14:08;;;;;;;5.63;2.40;;;29.40;96.20;;;;;;4937980;29;20024;-73
2021/07/25 11:16:44;;;;;;;4.60;2.85;;;28.70;97.80;;;;;;4955044;28;20035;-73
2021/07/25 11:19:13;;;;;;;4.72;2.78;;;28.20;97.90;;;;;;4960422;28;20182;-73
2021/07/25 11:21:41;;;;;;;5.85;2.85;;;27.90;98.00;;;;;;4955951;28;20026;-73
2021/07/25 11:24:34;;;;;;;4.10;2.42;;;28.00;98.00;;;;;;4973530;28;20027;-74
2021/07/25 11:27:04;;;;;;;5.70;2.63;;;28.90;97.80;;;;;;4973225;28;20030;-74
2021/07/25 11:29:32;;;;;;;4.80;2.40;;;29.40;95.90;;;;;;4973631;28;20035;-73
2021/07/25 11:31:59;;;;;;;4.63;2.42;;;29.70;95.60;;;;;;4960573;28;20503;-73
2021/07/25 11:34:32;;;;;;;4.55;2.05;;;29.90;94.40;;;;;;4954795;29;20572;-73
2021/07/25 11:37:08;;;;;;;8.60;3.70;;;29.70;93.90;;;;;;4954501;29;20396;-72
2021/07/25 11:39:35;;;;;;;5.32;2.85;;;29.50;92.80;;;;;;4953559;29;20032;-73
2021/07/25 11:42:05;;;;;;;6.75;2.20;;;29.90;93.30;;;;;;4954793;29;20059;-73
2021/07/25 11:44:32;;;;;;;7.75;2.13;;;31.00;92.20;;;;;;4964908;28;20042;-74
2021/07/25 11:46:59;;;;;;;4.28;2.72;;;31.80;89.30;;;;;;4937532;29;20035;-73
2021/07/25 11:49:35;;;;;;;5.00;2.25;;;32.00;88.70;;;;;;4953550;29;20442;-74
2021/07/25 11:52:02;;;;;;;4.10;2.00;;;32.00;82.80;;;;;;4954339;29;20023;-74
2021/07/25 11:54:35;;;;;;;4.57;2.30;;;31.70;83.20;;;;;;4954604;28;20118;-75
2021/07/25 11:57:10;;;;;;;3.67;1.98;;;31.80;81.40;;;;;;4954279;29;20043;-75
2021/07/25 11:59:45;;;;;;;4.05;2.00;;;31.90;78.50;;;;;;4953974;29;20019;-75
2021/07/25 12:02:11;;;;;;;4.65;2.83;;;32.80;79.10;;;;;;4954146;28;20046;-75
2021/07/25 12:04:42;;;;;;;3.72;2.25;;;33.80;77.50;;;;;;4953089;29;20031;-75
2021/07/25 12:07:15;;;;;;;3.25;2.08;;;34.00;76.70;;;;;;4936814;29;20035;-75
2021/07/25 12:09:46;;;;;;;3.13;1.85;;;34.10;69.30;;;;;;4936942;29;20086;-75
2021/07/25 12:12:17;;;;;;;3.97;1.95;;;33.80;69.70;;;;;;4954008;28;20096;-75
2021/07/25 12:14:47;;;;;;;3.10;2.17;;;32.60;69.20;;;;;;4954217;29;20484;-75
2021/07/25 12:17:33;;;;;;;2.65;2.20;;;32.30;73.30;;;;;;4954381;29;20027;-75
2021/07/25 12:20:12;;;;;;;3.03;2.08;;;32.20;70.50;;;;;;4966301;28;20412;-75
2021/07/25 12:22:53;;;;;;;6.72;2.70;;;33.00;73.30;;;;;;4972988;28;20027;-75
2021/07/25 12:25:18;;;;;;;4.60;2.35;;;33.10;74.50;;;;;;4972485;28;20093;-75
2021/07/25 12:27:44;;;;;;;3.20;2.38;;;33.80;71.80;;;;;;4948702;28;20465;-74
2021/07/25 12:30:11;;;;;;;5.25;2.33;;;34.40;70.20;;;;;;4953207;28;20677;-74
2021/07/25 12:32:37;;;;;;;3.05;2.40;;;;;;;;;;4973010;28;20094;-74
2021/07/25 12:35:08;;;;;;;4.45;2.42;;;35.10;70.10;;;;;;4973069;28;20030;-74
2021/07/25 12:37:44;;;;;;;4.07;2.10;;;35.00;67.00;;;;;;4971944;28;20026;-74
2021/07/25 12:40:11;;;;;;;3.20;2.35;;;34.80;69.70;;;;;;4962560;28;20086;-74
2021/07/25 12:42:56;;;;;;;3.58;2.30;;;35.40;67.90;;;;;;4952447;28;20104;-74
2021/07/25 12:45:34;;;;;;;6.72;2.47;;;35.60;66.60;;;;;;4936157;29;20578;-74
2021/07/25 12:48:12;;;;;;;7.68;2.60;;;34.70;67.80;;;;;;4936347;29;20507;-74